Station: Cape Wessel  

  Atmospheric Gas Attenuation - ITU Rec 676-11   ----------------- dB/100km -----------------
Date Time Temp RH % AH g/m3 Dew Point Wind Direction Speed kph Gust kph Barometer mB Rainfall Since 9am 24GHz 47GHz 76GHz 122GHz 134GHz 241GHz
31/08 20:30 25.2 76 17.69 20.7 30 35 1017.3 0 38.1 37.7 71.2 188.1 204.9 711.6
31/08 20:20 25.2 76 17.69 20.7 30 35 1017.2 0 38.1 37.7 71.1 188.1 204.9 711.6
31/08 20:10 25.3 78 18.26 21.2 28 35 1017.2 0 39.3 38.7 73.7 194.8 213.2 740.4
31/08 20:00 25.4 77 18.13 21.1 28 35 1017.1 0 39.0 38.4 73.0 192.9 210.9 732.6
31/08 19:50 25.3 77 18.03 21 28 33 1017 0 38.8 38.2 72.6 192.0 209.7 728.3
31/08 19:40 25.3 76 17.79 20.8 30 35 1016.8 0 38.3 37.8 71.5 189.0 206.1 715.6
31/08 19:30 25.3 76 17.79 20.8 30 35 1016.7 0 38.3 37.8 71.5 189.0 206.0 715.6
31/08 19:20 25.3 76 17.79 20.8 32 37 1016.5 0 38.3 37.8 71.5 188.9 206.0 715.5
31/08 19:10 25.3 75 17.56 20.5 32 39 1016.4 0 37.9 37.4 70.4 186.1 202.6 703.5
31/08 19:00 25.4 74 17.42 20.4 32 39 1016.3 0 37.5 37.1 69.7 184.2 200.2 695.3
31/08 18:50 25.4 75 17.66 20.6 30 35 1016.3 0 38.1 37.5 70.8 187.1 203.8 707.7
31/08 18:40 25.5 75 17.76 20.7 32 39 1016.2 0 38.3 37.6 71.1 188.0 205.0 711.9
31/08 18:30 25.5 76 17.99 21 32 39 1016.1 0 38.7 38.0 72.2 190.8 208.4 723.8
31/08 18:20 25.5 75 17.76 20.7 32 39 1016 0 38.3 37.6 71.1 188.0 205.0 711.8
31/08 18:10 25.6 76 18.09 21.1 32 37 1015.9 0 38.9 38.2 72.5 191.8 209.6 728.0
31/08 18:00 25.8 76 18.3 21.2 30 37 1015.8 0 39.4 38.5 73.3 193.8 212.2 737.0
31/08 17:50 25.8 75 18.06 21 30 39 1015.6 0 38.9 38.0 72.2 190.9 208.5 724.4
31/08 17:40 26 74 18.02 21 32 37 1015.5 0 38.8 37.8 71.8 189.9 207.4 720.3
31/08 17:30 26.1 74 18.12 21.1 32 37 1015.5 0 39.0 38.0 72.2 190.8 208.6 724.6
31/08 17:20 26.2 73 17.97 21 32 39 1015.4 0 38.6 37.7 71.4 188.7 206.1 715.8
31/08 17:10 26.4 73 18.17 21.2 30 37 1015.4 0 39.0 37.9 72.1 190.7 208.5 724.2
31/08 17:00 26.5 71 17.77 20.8 32 41 1015.3 0 38.2 37.2 70.2 185.6 202.3 702.7
31/08 16:50 27 69 17.76 20.8 32 39 1015.2 0 38.1 36.9 69.7 184.3 200.8 697.6
31/08 16:40 28.3 66 18.25 21.3 32 39 1015.2 0 39.0 37.2 70.7 186.9 204.4 710.4
31/08 16:30 28.4 66 18.35 21.4 32 41 1015.3 0 39.2 37.4 71.0 187.9 205.6 714.6
31/08 16:20 27.7 66 17.66 20.8 32 39 1015.2 0 37.8 36.4 68.6 181.4 197.5 686.3
31/08 16:10 27.2 70 18.22 21.2 32 39 1015.3 0 39.1 37.7 71.6 189.3 207.0 719.2
31/08 16:00 27.6 67 17.83 20.9 33 39 1015.2 0 38.2 36.8 69.5 183.6 200.2 695.7
31/08 15:50 27.6 68 18.09 21.2 33 41 1015.1 0 38.8 37.2 70.6 186.7 204.0 708.8
31/08 15:40 28.2 68 18.7 21.7 32 39 1015.2 0 40.0 38.1 72.8 192.5 211.3 734.2
31/08 15:30 27.8 66 17.75 20.9 32 39 1015.2 0 38.0 36.6 68.9 182.2 198.6 689.9
31/08 15:20 27.9 66 17.85 21 32 39 1015.3 0 38.2 36.7 69.3 183.2 199.7 694.0
31/08 15:10 28 66 17.95 21.1 32 39 1015.3 0 38.4 36.8 69.6 184.1 200.9 698.1
31/08 15:00 28.6 64 17.99 21.1 32 39 1015.4 0 38.4 36.6 69.3 183.2 199.9 694.8
31/08 14:50 28.6 66 18.55 21.6 32 39 1015.4 0 39.6 37.6 71.7 189.7 208.0 722.9
31/08 14:40 29.4 63 18.5 21.6 32 39 1015.5 0 39.4 37.2 70.8 187.2 205.1 712.9
31/08 14:30 28.6 68 19.11 22.1 28 35 1015.7 0 40.8 38.7 74.3 196.5 216.2 751.5
31/08 14:20 29 65 18.67 21.7 28 35 1015.8 0 39.8 37.7 71.9 190.2 208.7 725.3
31/08 14:10 30.2 63 19.32 22.4 28 35 1015.9 0 41.1 38.3 73.7 194.9 214.8 746.6
31/08 14:00 29.6 64 19 22.1 32 39 1016 0 40.5 38.0 72.8 192.7 211.8 736.4
31/08 13:50 29 62 17.81 21 32 41 1016.1 0 38.0 36.2 68.2 180.2 196.4 682.6
31/08 13:40 29.6 62 18.4 21.5 33 39 1016.2 0 39.2 37.0 70.2 185.7 203.2 706.5
31/08 13:30 30 60 18.2 21.4 32 43 1016.4 0 38.7 36.5 69.0 182.4 199.4 693.0
31/08 13:20 29.7 62 18.5 21.6 32 41 1016.4 0 39.4 37.1 70.6 186.6 204.4 710.6
31/08 13:10 29.8 63 18.9 22 32 41 1016.5 0 40.2 37.8 72.2 191.1 209.9 729.7
31/08 13:00 29.9 63 19.01 22.1 32 39 1016.6 0 40.4 37.9 72.6 192.1 211.2 734.3
31/08 12:50 29.7 62 18.5 21.6 33 41 1016.6 0 39.4 37.1 70.6 186.7 204.5 710.7
31/08 12:40 29.7 63 18.8 21.9 32 39 1016.8 0 40.0 37.7 71.9 190.2 208.8 725.8
31/08 12:30 29.8 62 18.6 21.7 33 41 1016.9 0 39.6 37.3 70.9 187.6 205.7 714.9
31/08 12:20 27.7 68 18.19 21.3 32 41 1017.1 0 38.9 37.5 71.1 187.9 205.5 713.9
31/08 12:10 31.1 57 18.34 21.6 28 35 1017.2 0 38.9 36.3 68.7 181.6 198.6 690.4
31/08 12:00 30.9 58 18.47 21.7 28 35 1017.4 0 39.2 36.6 69.4 183.6 201.0 698.7
31/08 11:50 30.9 56 17.83 21.1 26 33 1017.5 0 37.9 35.5 66.7 176.3 192.1 667.7
31/08 11:40 31 57 18.25 21.5 28 35 1017.6 0 38.7 36.2 68.4 180.8 197.7 687.2
31/08 11:30 31 58 18.57 21.8 28 35 1017.8 0 39.4 36.7 69.8 184.5 202.2 702.8
31/08 11:20 31.8 58 19.38 22.5 26 30 1018 0 41.0 37.8 72.5 191.9 211.5 735.3
31/08 11:10 30.9 57 18.15 21.4 30 33 1018.1 0 38.5 36.1 68.1 180.0 196.6 683.4
31/08 11:00 31.2 57 18.44 21.9 28 35 1018.2 0 39.1 36.4 69.1 182.6 199.9 694.9
31/08 10:50 30.7 58 18.27 21.5 28 35 1018.2 0 38.8 36.4 68.8 181.9 198.8 691.1
31/08 10:40 30.5 58 18.07 21.3 30 32 1018.3 0 38.4 36.1 68.1 180.1 196.5 683.2
31/08 10:30 30.3 56 17.26 20.8 30 39 1018.3 0 36.7 34.8 64.8 171.4 185.8 645.8
31/08 10:20 30.2 56 17.17 20.7 30 33 1018.3 0 36.6 34.7 64.5 170.6 184.8 642.3
31/08 10:10 30.1 57 17.38 20.9 30 33 1018.3 0 37.0 35.1 65.5 173.2 187.9 653.2
31/08 10:00 29.8 57 17.1 20.4 30 39 1018.3 0 36.5 34.7 64.6 170.7 184.8 642.3
31/08 09:50 29.6 58 17.21 20.5 32 35 1018.3 0 36.7 35.0 65.2 172.4 186.8 649.2
31/08 09:40 29 62 17.81 21 32 37 1018.2 0 38.0 36.3 68.3 180.6 196.7 683.6
31/08 09:30 29 62 17.81 21 28 35 1018.3 0 38.0 36.3 68.3 180.6 196.7 683.7
31/08 09:20 29.2 62 18.01 21.2 26 32 1018.3 0 38.4 36.5 69.0 182.4 199.0 691.8
31/08 09:10 28.7 63 17.8 21 28 33 1018.3 0 38.0 36.4 68.5 181.1 197.4 685.8
31/08 09:00 28.4 63 17.51 20.7 30 37 1018.2 0 37.4 36.0 67.5 178.5 194.0 674.1
31/08 08:50 28.2 63 17.32 20.5 28 33 1018.2 0 37.1 35.8 66.9 176.7 191.8 666.4
31/08 08:40 27.8 63 16.95 20.1 28 32 1018.2 0 36.3 35.3 65.6 173.4 187.6 651.6
31/08 08:30 27.5 66 17.46 20.6 30 37 1018.1 0 37.4 36.3 68.1 180.0 195.6 679.4
31/08 08:20 27.2 64 16.66 19.8 32 37 1018 0 35.8 35.0 64.9 171.4 184.9 642.3
31/08 08:10 26.9 64 16.38 19.5 30 35 1017.9 0 35.2 34.6 63.9 168.8 181.7 631.0
31/08 08:00 26.7 64 16.2 19.3 30 37 1017.9 0 34.8 34.4 63.3 167.2 179.6 623.8
31/08 07:50 26.3 65 16.09 19.2 32 39 1017.8 0 34.7 34.4 63.1 166.8 179.0 621.5
31/08 07:40 26 64 15.58 18.7 30 32 1017.8 0 33.6 33.6 61.2 161.6 172.5 599.0
31/08 07:30 25.9 67 16.22 19.3 30 35 1017.8 0 35.0 34.8 64.0 169.1 181.8 631.2
31/08 07:20 25.5 69 16.34 19.4 30 35 1017.6 0 35.2 35.1 64.9 171.4 184.4 640.4
31/08 07:10 25.1 70 16.2 19.2 30 33 1017.5 0 35.0 35.0 64.6 170.6 183.4 636.6
31/08 07:00 24.8 72 16.39 19.4 30 37 1017.4 0 35.4 35.5 65.7 173.5 186.8 648.7
31/08 06:50 24.5 72 16.11 19.1 28 32 1017.4 0 34.9 35.1 64.7 170.9 183.5 637.1
31/08 06:40 23.8 75 16.13 19.1 26 28 1017 0 35.0 35.4 65.3 172.6 185.5 643.7
31/08 06:30 23.7 73 15.61 18.6 22 28 1016.8 0 33.9 34.5 63.1 166.7 178.1 618.2
31/08 06:20 23.6 74 15.74 18.7 19 22 1016.7 0 34.1 34.8 63.8 168.4 180.2 625.5
31/08 06:10 23.6 76 16.16 19.1 22 28 1016.5 0 35.0 35.6 65.6 173.3 186.3 646.7
31/08 06:00 23.6 76 16.16 19.1 20 26 1016.4 0 35.0 35.5 65.6 173.3 186.3 646.7
31/08 05:50 23.7 75 16.04 19 20 24 1016.2 0 34.8 35.3 65.0 171.6 184.3 639.6
31/08 05:40 23.6 75 15.95 18.9 20 26 1016.1 0 34.6 35.2 64.7 170.8 183.2 635.8
31/08 05:30 23.6 75 15.95 18.9 24 28 1016.1 0 34.6 35.2 64.7 170.8 183.2 635.8
31/08 05:20 23.8 75 16.13 19.1 22 26 1016 0 35.0 35.4 65.3 172.5 185.3 643.3
31/08 05:10 23.8 74 15.92 18.9 26 30 1015.9 0 34.5 35.0 64.3 170.0 182.3 632.6
31/08 05:00 23.9 75 16.22 19.2 24 32 1015.9 0 35.1 35.5 65.6 173.3 186.4 647.0
31/08 04:50 23.9 74 16.01 19 24 26 1015.9 0 34.7 35.1 64.7 170.8 183.3 636.3
31/08 04:40 23.9 74 16.01 19 22 26 1015.9 0 34.7 35.1 64.7 170.8 183.3 636.3
31/08 04:30 24 72 15.66 18.6 26 33 1016 0 33.9 34.5 63.0 166.5 178.0 617.9
31/08 04:20 24 72 15.66 18.6 26 30 1016.1 0 33.9 34.5 63.0 166.5 178.1 618.0
31/08 04:10 24.1 72 15.75 18.7 22 26 1016.1 0 34.1 34.6 63.4 167.3 179.1 621.7
31/08 04:00 24 73 15.88 18.9 26 33 1016 0 34.4 34.9 64.0 169.1 181.2 629.0

Last Refresh: 31-Aug-2026 20:44:36

Bureau of Meteorology